Leadville, CO

3:01 AM MDT on April 27, 2015 (GMT -0600)
Lake County | | Change Station
CLOSE
Current Station
Airport
Location: Leadville,
Elevation: 9928 ft
Nearby Weather Stations
Active Advisory: Winter Weather Advisory Active Notice: Public Information Statement

Elev 9928 ft 39.23 °N, 106.32 °W | Updated 8 minutes ago

Overcast
Overcast
28 °F
Feels Like 24 °F
N
4
Wind Variable Wind from North

Today
High -- | Low -- °F
--% Chance of Precip.
Yesterday
High -- | Low -- °F
Precip. -- in
6:11 AM 7:54 PM
Waxing Gibbous, 63% visible
Pressure 29.91 in
Visibility 10.0 miles
Clouds Overcast 4900 ft
Windchill 24 °F
Dew Point 27 °F
Humidity 96%
Rainfall 0.00 in
Snow Depth Not available.
UV 0 out of 12
Pollen 3.10 out of 12
Air Quality Not available.
Flu Activity Sporadic
METAR KLXV 270853Z AUTO 35003KT 10SM OVC049 M02/M03 A3008 RMK AO2 SLP127 60000 T10221028 51002

More Conditions Fewer Conditions

Pressure 29.91 in
Visibility 10.0 miles
Clouds Overcast 4900 ft
Windchill 24 °F
Dew Point 27 °F
Humidity 96%
Rainfall 0.00 in
Snow Depth Not available.
UV 0 out of 12
Pollen 3.10 out of 12
Air Quality Not available.
Flu Activity Sporadic
METAR KLXV 270853Z AUTO 35003KT 10SM OVC049 M02/M03 A3008 RMK AO2 SLP127 60000 T10221028 51002

More Conditions Fewer Conditions

10-Day Weather Forecast

Almanac

Astronomy

Apr. 27, 2015 Rise Set
Actual Time
Civil Twilight
Nautical Twilight
Astronomical Twilight
Moon
Length of Visible Light
Length of Day
Tomorrow will be .
, % of the Moon is Illuminated

Today's Extremes

State Highs State Lows

Community

WunderPhotos

Upload Photos

1,817,277 photos uploaded!

WunderBlogs® & News

Nearby

Air Quality

  Air Quality AQ Index Pollutant
Not available.

Snow Depth

Station Depth Elevation

Earthquake Activity

City Distance Mag. Time & Date
Minimum magnitude displayed is 2.5.

Coastal Water Temperatures

Place Temperature

Stations

Nearby Weather Stations

Station Location Temp. Windchill Dew Point Humidity Wind Precip. Elev Updated Type
                   
Winter Weather Advisory
Statement as of 8:36 PM MDT on April 26, 2015

... Winter Weather Advisory remains in effect until 6 am MDT
Monday...

* location... Lake County... elevations above 9000 feet in Chaffee
County... the La Garita and eastern San Juan Mountains above
10000 feet.

* Cause and timing... a strong Spring storm will affect the
region through tonight.

* Snow accumulation... 4 to 9 inches with locally higher amounts.

* Wind... northeast to east at 15 to 25 mph.

* Impact... travel will be hazardous due to snow... poor
visibilities and slushy... snow covered roads.

Precautionary/preparedness actions...

If you are planning to travel in the advisory area during the
time of the advisory... listen to the latest weather forecast and
consider traveling at another time or by another Route.